Gypsum, Ohio
Current Conditions -  °F | °C
As of 6:52 AM on Friday 19 Dec 2014 (Local Time) from KPCW Reporting Station
Overcast Overcast  
Wind Chill: 21°   Ceiling: 1100
Heat Index: 27°   Visibility: 10mi
Dew Point: 25°   Wind: 5mph
Humidity: 93%   Direction: 50°NE
Pressure: 30.22"   Gusts: NA
Location:  41.49°N, 82.88°W
Report Text: KPCW 191152Z AUTO 05004KT 10SM OVC011 M03/M04 A3022 RMK AO2 53008 60000
Loading
Personal Weather Stations






























Interactive Weather Map New forecast layout! Learn more

10-Day Weather Forecast

Advertisements
Track Severe Weather on mobile